Time;durP1;ratioP1;P1;durP2;ratioP2;P2;SDS_P1;SDS_P2;PMS_P1;PMS_P2;Temp;Humidity;BMP_temperature;BMP_pressure;BME280_temperature;BME280_humidity;BME280_pressure;Samples;Min_cycle;Max_cycle;Signal;HPM_P1;HPM_P2
2022/12/26 00:00:42;;;;;;;7.07;4.43;;;9.30;99.90;;;;;;5058656;28;20024;-90
2022/12/26 00:03:07;;;;;;;9.45;5.03;;;9.20;99.90;;;;;;5062213;28;20031;-89
2022/12/26 00:05:36;;;;;;;10.13;5.07;;;9.10;99.90;;;;;;5069066;28;20023;-91
2022/12/26 00:08:02;;;;;;;11.05;4.57;;;9.10;99.90;;;;;;5060762;28;20384;-91
2022/12/26 00:10:28;;;;;;;9.35;5.50;;;9.10;99.90;;;;;;5075923;28;20027;-92
2022/12/26 00:12:53;;;;;;;11.73;4.55;;;9.10;99.90;;;;;;5047388;28;20534;-90
2022/12/26 00:15:19;;;;;;;7.68;4.90;;;9.10;99.90;;;;;;5068867;28;20027;-91
2022/12/26 00:17:44;;;;;;;7.25;4.45;;;9.20;99.90;;;;;;5087016;28;20032;-91
2022/12/26 00:20:10;;;;;;;9.82;5.03;;;9.20;99.90;;;;;;5075934;28;20022;-91
2022/12/26 00:22:48;;;;;;;10.68;5.28;;;9.10;99.90;;;;;;5081134;28;20030;-90
2022/12/26 00:25:14;;;;;;;9.48;4.72;;;9.10;99.90;;;;;;5052547;28;20033;-90
2022/12/26 00:27:41;;;;;;;7.20;4.75;;;9.00;99.90;;;;;;5112729;28;20513;-90
2022/12/26 00:30:08;;;;;;;9.05;5.25;;;9.00;99.90;;;;;;5065833;28;20027;-91
2022/12/26 00:32:33;;;;;;;11.32;5.65;;;9.00;99.90;;;;;;5044359;28;20052;-91
2022/12/26 00:34:59;;;;;;;10.35;4.97;;;8.90;99.90;;;;;;5043673;28;20030;-90
2022/12/26 00:37:25;;;;;;;10.15;4.97;;;8.80;99.90;;;;;;5066999;28;20048;-91
2022/12/26 00:39:50;;;;;;;7.32;5.03;;;8.70;99.90;;;;;;5074133;28;20045;-90
2022/12/26 00:42:16;;;;;;;9.40;4.88;;;8.60;99.90;;;;;;5073517;28;20550;-91
2022/12/26 00:44:41;;;;;;;7.32;5.00;;;8.70;99.90;;;;;;5062084;28;20020;-90
2022/12/26 00:47:07;;;;;;;7.43;4.88;;;8.80;99.90;;;;;;5065338;28;20030;-90
2022/12/26 00:49:33;;;;;;;10.00;5.50;;;8.90;99.90;;;;;;5058809;28;20374;-90
2022/12/26 00:51:58;;;;;;;10.82;5.32;;;9.00;99.90;;;;;;5070386;28;20029;-90
2022/12/26 00:54:24;;;;;;;10.40;4.40;;;9.20;99.90;;;;;;5096310;28;20083;-90
2022/12/26 00:56:50;;;;;;;7.85;4.50;;;9.20;99.90;;;;;;5047622;28;20079;-91
2022/12/26 00:59:15;;;;;;;11.30;5.30;;;9.30;99.90;;;;;;5081230;28;20040;-90
2022/12/26 01:01:41;;;;;;;9.48;4.97;;;9.30;99.90;;;;;;5067979;28;20015;-90
2022/12/26 01:04:07;;;;;;;12.15;5.13;;;9.30;99.90;;;;;;5072102;28;20034;-90
2022/12/26 01:06:32;;;;;;;8.40;4.57;;;9.30;99.90;;;;;;5063361;28;20019;-90
2022/12/26 01:08:58;;;;;;;11.20;5.60;;;9.30;99.90;;;;;;5061852;28;20030;-90
2022/12/26 01:11:39;;;;;;;13.75;5.05;;;9.30;99.90;;;;;;5099513;28;20051;-89
2022/12/26 01:14:15;;;;;;;9.95;5.30;;;9.40;99.90;;;;;;5058441;28;20034;-89
2022/12/26 01:16:43;;;;;;;10.48;5.00;;;9.30;99.90;;;;;;5080397;28;20076;-91
2022/12/26 01:19:10;;;;;;;8.93;5.00;;;9.30;99.90;;;;;;5066815;28;20159;-90
2022/12/26 01:21:36;;;;;;;7.75;4.63;;;9.20;99.90;;;;;;5069800;28;20029;-90
2022/12/26 01:24:03;;;;;;;10.55;5.85;;;9.10;99.90;;;;;;5098613;28;20068;-91
2022/12/26 01:26:28;;;;;;;12.02;5.90;;;9.00;99.90;;;;;;5062555;28;20504;-90
2022/12/26 01:28:54;;;;;;;15.50;7.20;;;8.90;99.90;;;;;;5085819;28;20054;-91
2022/12/26 01:31:21;;;;;;;9.68;6.50;;;8.90;99.90;;;;;;5030016;28;20103;-90
2022/12/26 01:33:47;;;;;;;9.43;5.82;;;8.80;99.90;;;;;;5112076;28;20039;-91
2022/12/26 01:36:34;;;;;;;9.55;5.53;;;8.80;99.90;;;;;;5068978;28;20031;-91
2022/12/26 01:39:00;;;;;;;10.25;6.07;;;8.80;99.90;;;;;;5081556;28;20031;-91
2022/12/26 01:41:26;;;;;;;10.88;5.75;;;8.80;99.90;;;;;;5056042;28;20226;-89
2022/12/26 01:44:01;;;;;;;10.05;6.07;;;8.80;99.90;;;;;;5075077;28;20031;-90
2022/12/26 01:46:43;;;;;;;9.02;5.65;;;8.90;99.90;;;;;;5060460;28;20027;-89
2022/12/26 01:49:16;;;;;;;;;;;8.90;99.90;;;;;;5065028;28;20032;-90
2022/12/26 01:51:55;;;;;;;12.18;5.85;;;8.90;99.90;;;;;;5096578;28;19914;-90
2022/12/26 01:54:22;;;;;;;13.73;4.80;;;8.90;99.90;;;;;;5052516;28;20030;-90
2022/12/26 02:00:36;;;;;;;11.95;5.10;;;9.00;99.90;;;;;;5065124;28;20084;-91
2022/12/26 02:05:48;;;;;;;10.82;5.53;;;9.10;99.90;;;;;;5062576;28;20022;-90
2022/12/26 02:08:20;;;;;;;11.93;5.05;;;9.10;99.90;;;;;;5095685;28;20032;-90
2022/12/26 02:10:51;;;;;;;9.93;4.80;;;9.20;99.90;;;;;;5111228;28;20475;-91
2022/12/26 02:13:18;;;;;;;17.40;5.25;;;9.20;99.90;;;;;;5079070;28;20031;-91
2022/12/26 02:15:45;;;;;;;10.75;4.75;;;9.20;99.90;;;;;;5078466;28;20023;-89
2022/12/26 02:18:11;;;;;;;9.70;4.90;;;9.10;99.90;;;;;;5068519;28;20123;-90
2022/12/26 02:21:10;;;;;;;10.57;5.10;;;9.20;99.90;;;;;;5065954;28;20511;-90
2022/12/26 02:24:10;;;;;;;10.63;5.40;;;9.20;99.90;;;;;;5062593;28;20024;-91
2022/12/26 02:27:15;;;;;;;13.48;4.90;;;9.10;99.90;;;;;;5057973;28;20030;-91
2022/12/26 02:30:05;;;;;;;11.45;4.57;;;9.10;99.90;;;;;;5102914;28;20023;-90
2022/12/26 02:36:27;;;;;;;10.52;5.10;;;9.10;99.90;;;;;;5063473;28;19953;-89
2022/12/26 02:38:59;;;;;;;6.93;4.65;;;9.10;99.90;;;;;;5077228;28;20479;-91
2022/12/26 02:41:47;;;;;;;;;;;9.00;99.90;;;;;;5049941;28;20073;-91
2022/12/26 02:47:37;;;;;;;10.20;4.30;;;9.00;99.90;;;;;;5097395;28;20486;-89
2022/12/26 03:14:25;;;;;;;11.38;4.80;;;8.90;99.90;;;;;;5063814;28;20079;-91
2022/12/26 03:17:19;;;;;;;8.68;5.10;;;8.90;99.90;;;;;;5068468;28;20041;-91
2022/12/26 03:20:10;;;;;;;7.93;4.63;;;8.90;99.90;;;;;;5013822;28;20117;-90
2022/12/26 03:22:45;;;;;;;14.60;5.15;;;9.00;99.90;;;;;;5115428;28;20397;-90
2022/12/26 03:28:02;;;;;;;7.05;4.55;;;8.90;99.90;;;;;;5062575;28;20024;-90
2022/12/26 03:36:55;;;;;;;9.65;4.70;;;8.70;99.90;;;;;;5073472;28;20115;-91
2022/12/26 04:20:51;;;;;;;6.47;4.07;;;9.20;99.90;;;;;;5047831;28;20062;-91
2022/12/26 04:46:26;;;;;;;10.13;4.80;;;9.10;99.90;;;;;;5081128;28;20029;-91
2022/12/26 04:51:38;;;;;;;7.40;4.20;;;9.00;99.90;;;;;;5025014;28;20531;-90
2022/12/26 04:54:04;;;;;;;7.35;4.43;;;9.10;99.90;;;;;;5061757;28;20071;-90
2022/12/26 04:56:30;;;;;;;7.90;4.38;;;9.10;99.90;;;;;;5073613;28;20092;-90
2022/12/26 04:58:56;;;;;;;6.43;4.38;;;9.20;99.90;;;;;;5071020;28;20053;-90
2022/12/26 05:13:21;;;;;;;10.55;4.50;;;9.20;99.90;;;;;;5070925;28;20023;-91
2022/12/26 05:29:31;;;;;;;11.93;4.85;;;8.90;99.90;;;;;;5087806;28;20043;-91
2022/12/26 05:31:56;;;;;;;7.82;4.82;;;8.80;99.90;;;;;;5075540;28;20486;-91
2022/12/26 05:34:22;;;;;;;9.18;4.82;;;8.80;99.90;;;;;;5070312;28;20076;-91
2022/12/26 05:36:52;;;;;;;12.65;5.15;;;8.90;99.90;;;;;;5068965;28;20053;-91
2022/12/26 05:39:18;;;;;;;9.05;5.05;;;8.90;99.90;;;;;;5068544;28;20035;-91
2022/12/26 05:41:44;;;;;;;15.18;5.43;;;8.90;99.90;;;;;;5097507;28;20463;-91
2022/12/26 05:44:10;;;;;;;9.60;5.43;;;8.80;99.90;;;;;;5057649;28;20051;-91
2022/12/26 05:46:37;;;;;;;9.43;5.53;;;8.80;99.90;;;;;;5089730;28;20531;-91
2022/12/26 05:49:04;;;;;;;9.65;5.10;;;8.70;99.90;;;;;;5051097;28;20085;-91
2022/12/26 05:51:32;;;;;;;11.98;5.25;;;8.70;99.90;;;;;;5081230;28;20105;-91
2022/12/26 05:53:57;;;;;;;10.18;5.65;;;8.60;99.90;;;;;;5085705;28;20137;-91
2022/12/26 05:56:23;;;;;;;8.70;4.95;;;8.60;99.90;;;;;;5068036;28;20458;-92
2022/12/26 05:58:57;;;;;;;10.80;4.88;;;8.60;99.90;;;;;;5076813;28;20106;-91
2022/12/26 06:01:24;;;;;;;10.38;6.22;;;8.60;99.90;;;;;;5102824;28;20028;-91
2022/12/26 06:03:52;;;;;;;10.52;5.75;;;8.60;99.90;;;;;;5080225;28;20054;-91
2022/12/26 06:06:19;;;;;;;9.40;5.43;;;8.50;99.90;;;;;;5092612;28;20034;-91
2022/12/26 06:08:49;;;;;;;10.05;5.88;;;8.60;99.90;;;;;;5069666;28;20029;-90
2022/12/26 06:11:16;;;;;;;10.33;5.83;;;8.50;99.90;;;;;;5083269;28;20364;-90
2022/12/26 06:13:42;;;;;;;11.95;6.20;;;8.50;99.90;;;;;;5000130;28;20273;-91
2022/12/26 06:16:11;;;;;;;8.90;5.22;;;8.60;99.90;;;;;;5009532;28;20033;-91
2022/12/26 06:18:37;;;;;;;10.13;5.22;;;8.70;99.90;;;;;;5049865;28;20183;-91
2022/12/26 06:21:11;;;;;;;11.68;5.93;;;8.70;99.90;;;;;;4995785;28;20030;-90
2022/12/26 06:24:14;;;;;;;9.00;4.85;;;8.70;99.90;;;;;;5027781;28;20020;-91
2022/12/26 06:26:40;;;;;;;9.57;5.20;;;8.70;99.90;;;;;;5030941;28;20026;-90
2022/12/26 06:29:06;;;;;;;9.18;5.50;;;8.60;99.90;;;;;;5020163;28;20038;-91
2022/12/26 06:31:35;;;;;;;10.45;5.35;;;8.60;99.90;;;;;;5011691;28;20025;-91
2022/12/26 06:34:01;;;;;;;12.32;5.63;;;8.60;99.90;;;;;;5010201;28;20557;-90
2022/12/26 06:36:27;;;;;;;7.85;5.35;;;8.70;99.90;;;;;;4995246;28;20025;-90
2022/12/26 06:38:53;;;;;;;9.27;5.35;;;8.70;99.90;;;;;;4995242;28;20062;-91
2022/12/26 06:41:21;;;;;;;8.68;5.05;;;8.70;99.90;;;;;;5013425;28;20541;-90
2022/12/26 06:43:47;;;;;;;8.65;5.20;;;8.70;99.90;;;;;;5019333;28;20034;-90
2022/12/26 06:46:17;;;;;;;11.73;4.93;;;8.70;99.90;;;;;;5010491;28;20117;-90
2022/12/26 06:48:43;;;;;;;8.05;5.57;;;8.70;99.90;;;;;;4995267;28;20022;-90
2022/12/26 06:51:12;;;;;;;12.02;6.13;;;8.70;99.90;;;;;;5053036;28;20079;-90
2022/12/26 06:53:38;;;;;;;11.95;5.32;;;8.70;99.90;;;;;;5002622;28;20065;-91
2022/12/26 06:56:12;;;;;;;13.02;5.45;;;8.70;99.90;;;;;;5011716;28;20469;-91
2022/12/26 06:58:39;;;;;;;9.98;5.25;;;8.70;99.90;;;;;;5011818;28;20030;-90
2022/12/26 07:01:06;;;;;;;9.00;6.28;;;8.70;99.90;;;;;;5039934;28;20037;-91
2022/12/26 07:03:32;;;;;;;10.85;5.75;;;8.70;99.90;;;;;;4995586;28;20117;-90
2022/12/26 07:06:06;;;;;;;9.15;5.53;;;8.60;99.90;;;;;;4995208;28;20499;-90
2022/12/26 07:08:32;;;;;;;15.13;7.00;;;8.60;99.90;;;;;;5011502;28;20034;-91
2022/12/26 07:10:59;;;;;;;12.63;6.05;;;8.50;99.90;;;;;;4995205;28;20026;-91
2022/12/26 07:13:31;;;;;;;11.77;6.18;;;8.50;99.90;;;;;;5085772;28;20027;-92
2022/12/26 07:16:12;;;;;;;14.45;7.10;;;8.40;99.90;;;;;;5011056;28;20133;-91
2022/12/26 07:18:38;;;;;;;15.43;6.72;;;8.40;99.90;;;;;;4991748;28;20034;-91
2022/12/26 07:21:09;;;;;;;18.45;7.32;;;8.40;99.90;;;;;;5017239;28;20534;-91
2022/12/26 07:23:35;;;;;;;15.80;6.75;;;8.40;99.90;;;;;;5031418;28;20060;-91
2022/12/26 07:26:01;;;;;;;29.52;8.80;;;8.30;99.90;;;;;;5024012;28;20026;-91
2022/12/26 07:28:27;;;;;;;20.08;8.82;;;8.30;99.90;;;;;;5009485;28;20467;-92
2022/12/26 07:30:53;;;;;;;19.83;8.32;;;8.30;99.90;;;;;;4993962;28;20037;-92
2022/12/26 07:33:34;;;;;;;16.65;8.13;;;8.30;99.90;;;;;;5010201;28;20477;-92
2022/12/26 07:36:02;;;;;;;16.23;8.07;;;8.30;99.90;;;;;;5024062;28;20033;-92
2022/12/26 07:38:28;;;;;;;16.10;9.00;;;8.30;99.90;;;;;;5053091;28;20139;-91
2022/12/26 07:40:55;;;;;;;17.33;9.00;;;8.30;99.90;;;;;;4994471;28;20104;-92
2022/12/26 07:43:21;;;;;;;20.08;9.15;;;8.30;99.90;;;;;;5010574;28;20030;-91
2022/12/26 07:45:49;;;;;;;17.58;9.63;;;8.30;99.90;;;;;;4992757;28;20049;-92
2022/12/26 07:48:15;;;;;;;21.80;10.00;;;8.30;99.90;;;;;;5019790;28;20030;-92
2022/12/26 07:50:45;;;;;;;22.48;10.52;;;8.30;99.90;;;;;;5020889;28;20049;-92
2022/12/26 07:53:12;;;;;;;17.48;10.57;;;8.30;99.90;;;;;;5047352;28;20036;-92
2022/12/26 07:56:09;;;;;;;19.70;10.35;;;8.30;99.90;;;;;;5011616;28;20121;-92
2022/12/26 07:58:35;;;;;;;21.75;10.88;;;8.40;99.90;;;;;;4989989;28;20377;-93
2022/12/26 08:01:02;;;;;;;26.67;11.20;;;8.40;99.90;;;;;;5009886;28;20022;-91
2022/12/26 08:03:28;;;;;;;25.52;10.85;;;8.40;99.90;;;;;;5015445;28;20034;-92
2022/12/26 08:05:54;;;;;;;23.55;10.00;;;8.40;99.90;;;;;;5043384;28;20396;-91
2022/12/26 08:08:20;;;;;;;24.58;10.45;;;8.40;99.90;;;;;;5013379;28;20029;-93
2022/12/26 08:10:46;;;;;;;21.23;11.52;;;8.40;99.90;;;;;;5039847;28;20058;-91
2022/12/26 08:13:12;;;;;;;23.60;11.20;;;8.40;99.90;;;;;;5010330;28;20044;-92
2022/12/26 08:15:38;;;;;;;26.83;12.20;;;8.40;99.90;;;;;;5007135;28;20033;-92
2022/12/26 08:18:04;;;;;;;26.63;13.50;;;8.40;99.90;;;;;;5017225;28;20053;-93
2022/12/26 08:20:30;;;;;;;35.42;13.00;;;8.40;99.90;;;;;;5028637;28;20028;-92
2022/12/26 08:22:56;;;;;;;27.38;12.88;;;8.50;99.90;;;;;;5029648;28;20087;-92
2022/12/26 08:25:50;;;;;;;21.73;12.05;;;8.40;99.90;;;;;;4993887;28;20423;-92
2022/12/26 08:28:15;;;;;;;34.15;15.75;;;8.40;99.90;;;;;;5112687;27;20038;-93
2022/12/26 08:30:41;;;;;;;29.55;14.02;;;8.50;99.90;;;;;;5006794;28;20103;-92
2022/12/26 08:33:08;;;;;;;28.05;14.18;;;8.40;99.90;;;;;;5022545;28;20056;-91
2022/12/26 08:35:35;;;;;;;23.70;12.68;;;8.40;99.90;;;;;;5099129;28;20039;-93
2022/12/26 08:38:01;;;;;;;25.85;14.30;;;8.40;99.90;;;;;;5055475;28;20026;-92
2022/12/26 08:40:27;;;;;;;24.30;13.48;;;8.40;99.90;;;;;;5088408;28;20489;-91
2022/12/26 08:42:52;;;;;;;25.90;13.98;;;8.40;99.90;;;;;;5071083;28;20053;-91
2022/12/26 08:45:18;;;;;;;28.75;13.50;;;8.40;99.90;;;;;;5078275;28;20019;-92
2022/12/26 08:47:44;;;;;;;26.02;13.80;;;8.40;99.90;;;;;;5062872;28;20050;-92
2022/12/26 08:50:10;;;;;;;32.20;16.73;;;8.40;99.90;;;;;;5092959;28;20031;-91
2022/12/26 08:52:35;;;;;;;28.02;14.27;;;8.40;99.90;;;;;;5051457;28;20026;-92
2022/12/26 08:55:01;;;;;;;23.05;13.63;;;8.40;99.90;;;;;;5088031;28;20035;-92
2022/12/26 08:57:27;;;;;;;27.80;13.82;;;8.40;99.90;;;;;;5041354;28;20036;-92
2022/12/26 08:59:53;;;;;;;25.83;11.88;;;8.40;99.90;;;;;;5065966;28;20035;-92
2022/12/26 09:02:19;;;;;;;26.38;13.05;;;8.30;99.90;;;;;;5074196;28;20090;-92
2022/12/26 09:04:44;;;;;;;21.95;13.98;;;8.40;99.90;;;;;;5072445;28;20020;-91
2022/12/26 09:07:10;;;;;;;21.17;12.77;;;8.30;99.90;;;;;;5070997;28;20026;-92
2022/12/26 09:09:36;;;;;;;21.40;11.90;;;8.30;99.90;;;;;;5052837;28;20095;-91
2022/12/26 09:12:02;;;;;;;20.40;12.15;;;8.30;99.90;;;;;;5026673;27;20036;-92
2022/12/26 09:14:28;;;;;;;19.33;11.55;;;8.30;99.90;;;;;;5089839;28;20112;-92
2022/12/26 09:16:53;;;;;;;17.40;10.57;;;8.30;99.90;;;;;;4997962;28;20041;-91
2022/12/26 09:19:20;;;;;;;16.83;10.27;;;8.30;99.90;;;;;;5005973;28;20030;-92
2022/12/26 09:21:47;;;;;;;23.83;10.43;;;8.30;99.90;;;;;;5000119;28;20087;-93
2022/12/26 09:24:15;;;;;;;15.55;9.40;;;8.30;99.90;;;;;;5003057;28;20385;-91
2022/12/26 09:26:41;;;;;;;21.45;10.65;;;8.30;99.90;;;;;;5000623;28;20031;-92
2022/12/26 09:29:09;;;;;;;20.67;11.20;;;8.30;99.90;;;;;;5090841;28;20042;-91
2022/12/26 09:31:35;;;;;;;15.95;8.93;;;8.40;99.90;;;;;;5090475;28;20128;-91
2022/12/26 09:34:05;;;;;;;15.70;8.52;;;8.30;99.90;;;;;;5011713;28;20071;-91
2022/12/26 09:36:34;;;;;;;16.40;9.60;;;8.30;99.90;;;;;;5012711;28;20030;-91
2022/12/26 09:39:00;;;;;;;14.93;8.60;;;8.30;99.90;;;;;;4993329;28;20034;-91
2022/12/26 09:41:41;;;;;;;14.32;8.00;;;8.20;99.90;;;;;;4999271;28;20515;-93
2022/12/26 09:44:20;;;;;;;17.05;8.75;;;8.30;99.90;;;;;;5092360;28;20476;-92
2022/12/26 09:47:02;;;;;;;16.50;10.50;;;8.20;99.90;;;;;;5084769;28;20026;-93
2022/12/26 09:49:39;;;;;;;23.13;11.85;;;8.30;99.90;;;;;;4994559;28;20031;-91
2022/12/26 09:52:14;;;;;;;21.90;11.80;;;8.30;99.90;;;;;;4993436;28;20409;-91
2022/12/26 09:54:57;;;;;;;26.80;11.90;;;8.20;99.90;;;;;;5010766;28;20377;-93
2022/12/26 09:57:48;;;;;;;31.65;12.23;;;8.20;99.90;;;;;;5013233;28;20052;-92
2022/12/26 10:00:27;;;;;;;15.15;9.57;;;8.20;99.90;;;;;;5096845;28;20069;-92
2022/12/26 10:02:56;;;;;;;20.80;9.60;;;8.20;99.90;;;;;;4996380;28;20556;-92
2022/12/26 10:05:39;;;;;;;14.02;8.80;;;8.20;99.90;;;;;;4989721;28;20437;-92
2022/12/26 10:08:34;;;;;;;18.20;9.38;;;8.30;99.90;;;;;;4996047;28;20038;-92
2022/12/26 10:11:03;;;;;;;16.30;9.02;;;8.30;99.90;;;;;;4986318;28;20034;-92
2022/12/26 10:13:31;;;;;;;17.30;9.73;;;8.30;99.90;;;;;;5001021;28;20503;-91
2022/12/26 10:16:20;;;;;;;16.02;8.88;;;8.20;99.90;;;;;;5004190;28;20397;-92
2022/12/26 10:19:17;;;;;;;17.33;8.43;;;8.20;99.90;;;;;;4993031;28;20117;-92
2022/12/26 10:22:08;;;;;;;14.40;8.18;;;8.20;99.90;;;;;;4991905;28;20068;-92
2022/12/26 10:24:37;;;;;;;14.35;8.95;;;8.10;99.90;;;;;;5081948;28;20093;-92
2022/12/26 10:27:09;;;;;;;11.30;6.50;;;8.10;99.90;;;;;;5004324;28;20045;-93
2022/12/26 10:29:42;;;;;;;17.50;8.82;;;8.10;99.90;;;;;;5099512;28;20027;-91
2022/12/26 10:32:17;;;;;;;17.20;8.65;;;8.10;99.90;;;;;;5066101;28;20109;-91
2022/12/26 10:34:48;;;;;;;15.82;8.35;;;8.10;99.90;;;;;;5074054;28;20026;-92
2022/12/26 10:37:29;;;;;;;13.90;6.40;;;8.10;99.90;;;;;;5091340;28;20034;-91
2022/12/26 10:39:57;;;;;;;;;;;8.10;99.90;;;;;;5045336;28;20111;-92
2022/12/26 10:42:36;;;;;;;20.10;9.05;;;8.10;99.90;;;;;;5085418;28;19947;-92
2022/12/26 10:45:37;;;;;;;16.20;8.18;;;8.10;99.90;;;;;;5052508;28;20115;-92
2022/12/26 10:48:03;;;;;;;17.33;9.13;;;8.10;99.90;;;;;;5054430;28;20034;-91
2022/12/26 10:50:32;;;;;;;16.42;8.55;;;8.10;99.90;;;;;;5073603;28;20828;-92
2022/12/26 10:52:59;;;;;;;13.57;8.55;;;8.10;99.90;;;;;;5059897;28;20464;-91
2022/12/26 10:55:31;;;;;;;15.88;9.18;;;8.10;99.90;;;;;;5069308;28;20046;-91
2022/12/26 10:58:18;;;;;;;17.75;8.80;;;8.10;99.90;;;;;;5107074;28;20480;-92
2022/12/26 11:00:44;;;;;;;13.82;7.40;;;8.10;99.90;;;;;;5069216;28;20044;-92
2022/12/26 11:03:11;;;;;;;16.80;8.73;;;8.10;99.90;;;;;;5073320;28;20023;-92
2022/12/26 11:05:41;;;;;;;12.32;7.22;;;8.10;99.90;;;;;;5041158;28;20018;-93
2022/12/26 11:08:09;;;;;;;10.70;7.75;;;8.10;99.90;;;;;;5067228;28;20027;-91
2022/12/26 11:10:35;;;;;;;14.27;8.30;;;8.10;99.90;;;;;;5072232;28;20125;-91
2022/12/26 11:13:05;;;;;;;15.23;9.77;;;8.10;99.90;;;;;;5061675;28;20035;-92
2022/12/26 11:15:33;;;;;;;15.80;9.02;;;8.10;99.90;;;;;;5060960;28;20079;-93
2022/12/26 11:18:26;;;;;;;16.00;10.20;;;8.10;99.90;;;;;;5015036;28;20089;-92
2022/12/26 11:20:52;;;;;;;15.65;10.35;;;8.20;99.90;;;;;;5074907;28;20041;-91
2022/12/26 11:23:25;;;;;;;16.55;11.30;;;8.30;99.90;;;;;;5074940;28;20435;-92
2022/12/26 11:25:56;;;;;;;17.70;11.07;;;8.20;99.90;;;;;;5068474;28;20030;-92
2022/12/26 11:28:36;;;;;;;18.40;11.98;;;8.10;99.90;;;;;;5074241;28;20133;-91
2022/12/26 11:31:06;;;;;;;25.00;12.68;;;8.10;99.90;;;;;;5115139;28;20481;-92
2022/12/26 11:33:41;;;;;;;22.48;14.00;;;8.20;99.90;;;;;;5036646;28;20060;-91
2022/12/26 11:36:13;;;;;;;20.60;13.15;;;8.10;99.90;;;;;;5069362;28;20386;-92
2022/12/26 11:39:00;;;;;;;19.83;13.82;;;8.10;99.90;;;;;;5100314;28;20028;-92
2022/12/26 11:41:32;;;;;;;25.35;15.23;;;8.20;99.90;;;;;;5051738;28;20556;-91
2022/12/26 11:44:01;;;;;;;;;;;8.10;99.90;;;;;;5107836;28;20024;-91
2022/12/26 11:46:37;;;;;;;30.58;16.65;;;8.20;99.90;;;;;;5093175;28;19996;-92
2022/12/26 11:49:03;;;;;;;20.60;14.82;;;8.20;99.90;;;;;;5010741;28;20469;-92
2022/12/26 11:51:41;;;;;;;22.38;14.73;;;8.10;99.90;;;;;;5090366;28;20437;-92
2022/12/26 11:54:26;;;;;;;25.70;14.60;;;8.10;99.90;;;;;;5076823;28;20060;-91
2022/12/26 11:57:06;;;;;;;25.60;16.23;;;8.20;99.90;;;;;;5099816;28;20363;-91
2022/12/26 11:59:32;;;;;;;30.80;16.45;;;8.20;99.90;;;;;;5051414;28;20026;-91
2022/12/26 12:02:20;;;;;;;20.98;15.32;;;8.20;99.90;;;;;;5091484;28;20135;-91
2022/12/26 12:04:47;;;;;;;27.35;17.10;;;8.20;99.90;;;;;;5098203;28;20437;-91
2022/12/26 12:07:26;;;;;;;26.58;17.50;;;8.20;99.90;;;;;;5054402;28;20439;-91
2022/12/26 12:10:02;;;;;;;28.40;16.63;;;8.20;99.90;;;;;;5097945;28;20535;-92
2022/12/26 12:12:50;;;;;;;26.05;16.27;;;8.20;99.90;;;;;;5109799;28;20023;-92
2022/12/26 12:15:30;;;;;;;28.13;16.90;;;8.20;99.90;;;;;;5076009;28;20192;-91
2022/12/26 12:18:24;;;;;;;22.73;16.35;;;8.30;99.90;;;;;;5105365;28;20045;-93
2022/12/26 12:21:17;;;;;;;27.23;16.17;;;8.30;99.90;;;;;;5051761;28;20048;-91
2022/12/26 12:24:03;;;;;;;22.48;16.00;;;8.40;99.90;;;;;;5069393;28;20030;-92
2022/12/26 12:26:42;;;;;;;22.80;15.05;;;8.50;99.90;;;;;;5095465;28;20400;-91
2022/12/26 12:29:07;;;;;;;29.25;15.65;;;8.40;99.90;;;;;;5039220;28;20394;-91
2022/12/26 12:31:48;;;;;;;23.70;14.75;;;8.40;99.90;;;;;;5061920;28;20029;-92
2022/12/26 12:34:25;;;;;;;29.85;14.18;;;8.30;99.90;;;;;;5106486;28;20052;-91
2022/12/26 12:37:18;;;;;;;21.17;13.88;;;8.30;99.90;;;;;;5076187;28;20034;-91
2022/12/26 12:40:05;;;;;;;21.98;13.30;;;8.30;99.90;;;;;;5073673;28;20026;-90
2022/12/26 12:42:52;;;;;;;18.10;10.52;;;8.30;99.90;;;;;;5058138;28;20051;-91
2022/12/26 12:45:27;;;;;;;16.67;10.57;;;8.30;99.90;;;;;;5012824;28;20026;-90
2022/12/26 12:48:24;;;;;;;15.57;10.70;;;8.30;99.90;;;;;;5036899;28;20029;-92
2022/12/26 12:51:10;;;;;;;15.93;10.05;;;8.30;99.90;;;;;;5058787;28;20046;-90
2022/12/26 12:54:00;;;;;;;13.18;9.07;;;8.40;99.90;;;;;;5078608;28;20061;-91
2022/12/26 12:56:41;;;;;;;13.30;10.15;;;8.30;99.90;;;;;;5086414;28;20028;-91
2022/12/26 12:59:37;;;;;;;15.60;10.97;;;8.40;99.90;;;;;;5068613;28;20865;-91
2022/12/26 13:02:25;;;;;;;17.48;12.88;;;8.40;99.90;;;;;;5072789;28;20463;-91
2022/12/26 13:05:03;;;;;;;19.52;12.10;;;8.40;99.90;;;;;;5100930;28;20118;-91
2022/12/26 13:07:38;;;;;;;16.17;11.32;;;8.50;99.90;;;;;;5042647;28;20022;-91
2022/12/26 13:10:22;;;;;;;17.17;10.60;;;8.50;99.90;;;;;;5013007;28;20021;-91
2022/12/26 13:12:49;;;;;;;15.15;10.30;;;8.50;99.90;;;;;;5101328;28;20028;-91
2022/12/26 13:15:30;;;;;;;18.00;12.32;;;8.50;99.90;;;;;;5076706;28;20026;-92
2022/12/26 13:18:06;;;;;;;18.10;10.90;;;8.60;99.90;;;;;;5099849;28;20028;-92
2022/12/26 13:20:42;;;;;;;17.90;11.30;;;8.60;99.90;;;;;;5089774;28;20047;-90
2022/12/26 13:26:25;;;;;;;16.42;10.85;;;8.50;99.90;;;;;;5029877;28;20021;-91
2022/12/26 13:29:34;;;;;;;17.20;11.85;;;8.50;99.90;;;;;;5067788;28;20422;-91
2022/12/26 13:32:21;;;;;;;18.60;11.05;;;8.50;99.90;;;;;;4940840;28;20039;-91
2022/12/26 13:34:48;;;;;;;18.25;11.55;;;8.50;99.90;;;;;;5044662;28;20041;-90
2022/12/26 13:37:38;;;;;;;16.20;10.75;;;8.40;99.90;;;;;;5068372;28;20475;-90
2022/12/26 13:40:17;;;;;;;21.17;11.25;;;8.50;99.90;;;;;;5094742;28;20122;-91
2022/12/26 13:46:00;;;;;;;13.65;9.25;;;8.40;99.90;;;;;;5073589;28;20032;-92
2022/12/26 13:48:35;;;;;;;20.15;10.38;;;8.30;99.90;;;;;;5072694;28;20027;-92
2022/12/26 13:51:04;;;;;;;16.98;10.32;;;8.30;99.90;;;;;;5060807;28;20018;-91
2022/12/26 13:53:37;;;;;;;14.20;8.88;;;8.40;99.90;;;;;;5076059;28;20378;-91
2022/12/26 13:56:17;;;;;;;14.73;8.90;;;8.40;99.90;;;;;;5047235;28;20024;-91
2022/12/26 13:59:14;;;;;;;18.52;9.73;;;8.30;99.90;;;;;;5064937;28;20169;-90
2022/12/26 14:02:20;;;;;;;19.73;8.63;;;8.30;99.90;;;;;;5078550;28;20059;-91
2022/12/26 14:04:52;;;;;;;16.95;9.52;;;8.30;99.90;;;;;;5087784;28;20016;-92
2022/12/26 14:07:32;;;;;;;18.40;9.45;;;8.30;99.90;;;;;;5070847;28;20031;-93
2022/12/26 14:10:04;;;;;;;13.27;8.00;;;8.30;99.90;;;;;;5098290;28;20036;-91
2022/12/26 14:12:39;;;;;;;13.27;8.15;;;8.30;99.90;;;;;;5081409;28;20031;-92
2022/12/26 14:15:23;;;;;;;10.88;7.43;;;8.20;99.90;;;;;;5059981;28;20038;-92
2022/12/26 14:18:04;;;;;;;14.52;8.02;;;8.20;99.90;;;;;;5089416;28;20051;-91
2022/12/26 14:20:37;;;;;;;13.17;7.47;;;8.20;99.90;;;;;;5080543;28;20023;-91
2022/12/26 14:23:33;;;;;;;12.85;7.47;;;8.20;99.90;;;;;;5070909;28;20367;-91
2022/12/26 14:26:21;;;;;;;10.93;7.30;;;8.20;99.90;;;;;;5098690;28;20034;-92
2022/12/26 14:29:11;;;;;;;13.60;6.82;;;8.20;99.90;;;;;;5035512;28;20042;-92
2022/12/26 14:32:07;;;;;;;11.77;7.00;;;8.10;99.90;;;;;;5069784;28;20034;-92
2022/12/26 14:34:48;;;;;;;9.98;6.22;;;8.10;99.90;;;;;;5104667;28;20043;-91
2022/12/26 14:37:19;;;;;;;13.55;7.07;;;8.10;99.90;;;;;;5025309;28;20481;-92
2022/12/26 14:40:03;;;;;;;14.93;8.82;;;8.10;99.90;;;;;;5057665;28;20129;-91
2022/12/26 14:45:26;;;;;;;10.45;7.18;;;8.00;99.90;;;;;;5026231;28;20030;-92
2022/12/26 14:47:52;;;;;;;9.90;7.15;;;8.00;99.90;;;;;;5104677;28;20421;-90
2022/12/26 14:50:44;;;;;;;13.43;8.00;;;8.00;99.90;;;;;;5062701;28;20023;-90
2022/12/26 14:53:28;;;;;;;14.57;7.90;;;8.00;99.90;;;;;;5038702;28;20532;-91
2022/12/26 14:56:09;;;;;;;15.45;7.55;;;8.00;99.90;;;;;;5040111;28;20461;-90
2022/12/26 14:59:10;;;;;;;12.32;8.38;;;8.00;99.90;;;;;;5065358;28;20532;-92
2022/12/26 15:01:35;;;;;;;10.27;7.38;;;8.00;99.90;;;;;;5062474;28;20029;-92
2022/12/26 15:04:27;;;;;;;12.55;7.57;;;8.00;99.90;;;;;;5046918;28;20026;-91
2022/12/26 15:07:20;;;;;;;13.30;7.32;;;8.00;99.90;;;;;;5082688;28;20032;-90
2022/12/26 15:09:51;;;;;;;13.70;7.90;;;7.90;99.90;;;;;;5095397;28;20028;-91
2022/12/26 15:12:46;;;;;;;12.65;7.50;;;8.00;99.90;;;;;;5052230;28;20042;-91
2022/12/26 15:19:10;;;;;;;13.80;8.73;;;7.90;99.90;;;;;;4983903;28;20045;-91
2022/12/26 15:22:01;;;;;;;12.77;7.50;;;7.90;99.90;;;;;;5096337;28;20098;-90
2022/12/26 15:25:00;;;;;;;13.07;8.95;;;7.90;99.90;;;;;;5007974;28;20029;-90
2022/12/26 15:27:56;;;;;;;12.27;8.27;;;8.00;99.90;;;;;;5049398;28;20104;-90
2022/12/26 15:30:50;;;;;;;16.67;9.60;;;7.90;99.90;;;;;;5047042;28;20020;-91
2022/12/26 15:33:50;;;;;;;18.05;9.82;;;8.00;99.90;;;;;;5065133;28;20022;-91
2022/12/26 15:36:25;;;;;;;21.42;11.95;;;7.90;99.90;;;;;;5071634;28;20031;-90
2022/12/26 15:39:03;;;;;;;14.82;11.00;;;8.00;99.90;;;;;;5089898;28;20056;-90
2022/12/26 15:41:42;;;;;;;18.30;9.95;;;7.90;99.90;;;;;;5070238;28;20024;-90
2022/12/26 15:44:13;;;;;;;16.55;11.00;;;7.90;99.90;;;;;;5075312;28;20027;-90
2022/12/26 15:46:47;;;;;;;16.63;10.90;;;8.00;99.90;;;;;;5083350;28;20023;-90
2022/12/26 15:49:50;;;;;;;17.27;12.75;;;7.90;99.90;;;;;;5075904;28;20105;-90
2022/12/26 15:53:08;;;;;;;18.25;11.77;;;8.00;99.90;;;;;;5066178;28;20028;-90